Time;durP1;ratioP1;P1;durP2;ratioP2;P2;SDS_P1;SDS_P2;PMS_P1;PMS_P2;Temp;Humidity;BMP_temperature;BMP_pressure;BME280_temperature;BME280_humidity;BME280_pressure;Samples;Min_cycle;Max_cycle;Signal;HPM_P1;HPM_P2
2021/03/23 00:01:38;;;;;;;;;17.00;14.50;;;;;10.63;41.68;98682.88;4880097;28;102577;-86
2021/03/23 00:04:05;;;;;;;;;17.75;14.50;;;;;10.64;42.08;98683.72;4898581;28;104131;-86
2021/03/23 00:06:32;;;;;;;;;17.00;16.00;;;;;10.64;41.74;98687.28;4897104;28;102576;-86
2021/03/23 00:09:00;;;;;;;;;17.00;16.00;;;;;10.64;42.02;98692.69;4907144;28;102051;-86
2021/03/23 00:11:32;;;;;;;;;20.25;17.75;;;;;10.65;41.87;98705.19;4895023;28;102220;-86
2021/03/23 00:14:00;;;;;;;;;15.75;12.75;;;;;10.65;41.62;98702.47;4878730;28;104034;-87
2021/03/23 00:16:28;;;;;;;;;19.25;15.50;;;;;10.63;41.88;98693.72;4880854;28;102168;-85
2021/03/23 00:18:55;;;;;;;;;16.75;13.25;;;;;10.62;41.94;98685.81;4895185;28;101803;-85
2021/03/23 00:21:22;;;;;;;;;18.25;15.50;;;;;10.61;41.69;98684.97;4901480;28;102249;-85
2021/03/23 00:23:50;;;;;;;;;12.50;11.75;;;;;10.61;41.84;98682.28;4898554;28;104135;-85
2021/03/23 00:26:17;;;;;;;;;18.00;16.25;;;;;10.61;41.97;98695.78;4891826;28;102521;-85
2021/03/23 00:28:48;;;;;;;;;16.00;13.25;;;;;10.61;42.12;98692.25;4896946;28;102133;-85
2021/03/23 00:31:19;;;;;;;;;15.50;14.00;;;;;10.59;42.00;98689.72;4895156;28;103788;-85
2021/03/23 00:33:56;;;;;;;;;16.75;16.00;;;;;10.59;41.96;98692.44;4874903;28;104437;-85
2021/03/23 00:36:24;;;;;;;;;18.75;14.25;;;;;10.60;41.89;98690.56;4902502;28;102086;-85
2021/03/23 00:38:51;;;;;;;;;22.50;16.25;;;;;10.58;41.81;98695.38;4865531;28;102138;-85
2021/03/23 00:41:18;;;;;;;;;18.25;14.50;;;;;10.57;42.17;98686.41;4865056;28;102289;-85
2021/03/23 00:43:44;;;;;;;;;19.50;15.00;;;;;10.57;41.86;98689.13;4897649;28;104069;-85
2021/03/23 00:46:11;;;;;;;;;17.25;16.00;;;;;10.60;41.98;98687.88;4869972;28;102155;-86
2021/03/23 00:48:38;;;;;;;;;19.25;16.50;;;;;10.59;41.81;98694.31;4896699;28;103545;-87
2021/03/23 00:51:05;;;;;;;;;19.25;15.00;;;;;10.56;42.18;98682.03;4881724;28;103698;-86
2021/03/23 00:53:32;;;;;;;;;17.75;13.50;;;;;10.56;41.79;98683.91;4895245;28;104021;-86
2021/03/23 00:56:01;;;;;;;;;18.25;13.50;;;;;10.58;42.24;98688.06;4901052;28;102575;-86
2021/03/23 00:58:28;;;;;;;;;13.00;11.25;;;;;10.56;41.72;98686.59;4909278;28;101821;-87
2021/03/23 01:00:55;;;;;;;;;15.75;12.50;;;;;10.57;41.71;98681.00;4903872;28;102384;-86
2021/03/23 01:03:22;;;;;;;;;2.75;0.00;;;;;10.57;41.87;98682.88;4895384;28;104361;-86
2021/03/23 01:05:50;;;;;;;;;17.25;15.25;;;;;10.55;41.63;98680.34;4892268;28;102692;-87
2021/03/23 01:08:17;;;;;;;;;16.50;14.50;;;;;10.54;41.90;98673.28;4890343;28;103497;-86
2021/03/23 01:10:43;;;;;;;;;19.50;15.00;;;;;10.54;42.06;98684.09;4902706;28;102331;-86
2021/03/23 01:13:10;;;;;;;;;17.25;16.00;;;;;10.53;42.11;98687.00;4899060;28;104100;-86
2021/03/23 01:15:37;;;;;;;;;19.25;15.75;;;;;10.54;41.94;98686.78;4903257;28;102369;-86
2021/03/23 01:18:04;;;;;;;;;14.00;11.25;;;;;10.53;41.74;98674.31;4899414;28;102166;-86
2021/03/23 01:20:31;;;;;;;;;17.75;16.00;;;;;10.54;42.08;98677.84;4904449;28;103211;-86
2021/03/23 01:22:58;;;;;;;;;17.25;14.25;;;;;10.54;41.92;98678.69;4891851;28;104424;-86
2021/03/23 01:25:25;;;;;;;;;16.25;14.00;;;;;10.50;41.80;98666.59;4896463;28;102137;-85
2021/03/23 01:27:51;;;;;;;;;16.75;14.25;;;;;10.52;41.90;98664.53;4895745;28;102260;-86
2021/03/23 01:30:20;;;;;;;;;20.50;17.00;;;;;10.52;41.88;98669.13;4879659;28;102281;-86
2021/03/23 01:32:47;;;;;;;;;22.25;16.75;;;;;10.51;41.68;98679.09;4892535;28;106190;-85
2021/03/23 01:35:14;;;;;;;;;16.50;15.50;;;;;10.49;41.95;98670.31;4894885;28;102197;-85
2021/03/23 01:37:41;;;;;;;;;17.00;13.00;;;;;10.50;41.64;98665.75;4896732;28;102304;-85
2021/03/23 01:40:08;;;;;;;;;18.00;14.25;;;;;10.51;41.57;98667.44;4895713;28;102042;-85
2021/03/23 01:42:52;;;;;;;;;16.75;13.00;;;;;10.52;41.99;98666.41;4897593;28;104033;-86
2021/03/23 01:45:20;;;;;;;;;15.50;12.00;;;;;10.52;41.85;98669.94;4900782;28;102442;-85
2021/03/23 01:47:47;;;;;;;;;17.50;14.25;;;;;10.52;41.69;98669.94;4897180;28;102449;-85
2021/03/23 01:50:14;;;;;;;;;17.00;14.00;;;;;10.51;42.06;98668.28;4895678;28;102228;-86
2021/03/23 01:52:41;;;;;;;;;16.25;11.75;;;;;10.51;41.42;98679.09;4876126;28;104040;-86
2021/03/23 01:55:09;;;;;;;;;21.50;15.50;;;;;10.50;41.75;98674.72;4856454;28;102175;-86
2021/03/23 01:57:36;;;;;;;;;14.75;12.00;;;;;10.50;41.79;98671.16;4896563;28;102270;-86
2021/03/23 02:00:03;;;;;;;;;18.50;12.75;;;;;10.48;41.98;98668.69;4878620;28;103392;-86
2021/03/23 02:02:30;;;;;;;;;23.00;16.75;;;;;10.49;41.66;98675.72;4872031;28;104071;-86
2021/03/23 02:05:09;;;;;;;;;21.75;15.50;;;;;10.49;42.11;98666.81;4895390;28;102235;-86
2021/03/23 02:07:35;;;;;;;;;19.00;14.25;;;;;10.49;41.64;98669.53;4902482;28;101976;-86
2021/03/23 02:10:02;;;;;;;;;19.00;16.50;;;;;10.46;41.90;98665.31;4876126;28;102140;-86
2021/03/23 02:12:30;;;;;;;;;17.00;14.00;;;;;10.46;41.45;98668.03;4877997;28;104128;-86
2021/03/23 02:14:57;;;;;;;;;17.75;16.75;;;;;10.47;41.76;98658.91;4881504;28;102792;-86
2021/03/23 02:17:29;;;;;;;;;18.00;15.00;;;;;10.47;41.73;98667.00;4885620;28;102118;-86
2021/03/23 02:19:57;;;;;;;;;18.00;15.50;;;;;10.47;41.76;98658.06;4896983;28;103382;-86
2021/03/23 02:22:32;;;;;;;;;18.25;16.75;;;;;10.47;41.76;98656.19;4902509;28;102723;-86
2021/03/23 02:24:59;;;;;;;;;22.50;18.75;;;;;10.44;41.67;98670.13;4892088;28;102382;-86
2021/03/23 02:27:27;;;;;;;;;20.25;16.75;;;;;10.46;41.80;98665.31;4906086;28;102083;-86
2021/03/23 02:29:54;;;;;;;;;18.75;16.75;;;;;10.43;42.06;98673.84;4901658;28;102111;-86
2021/03/23 02:32:21;;;;;;;;;23.00;16.75;;;;;10.44;41.52;98664.72;4865173;28;104129;-86
2021/03/23 02:34:48;;;;;;;;;18.00;12.25;;;;;10.45;41.68;98674.47;4902851;28;102152;-86
2021/03/23 02:37:15;;;;;;;;;16.75;15.25;;;;;10.45;41.52;98663.66;4900209;28;104015;-86
2021/03/23 02:39:42;;;;;;;;;20.25;17.00;;;;;10.46;41.64;98668.03;4875619;28;102495;-86
2021/03/23 02:42:09;;;;;;;;;16.50;14.75;;;;;10.46;41.73;98668.03;4898351;28;104037;-86
2021/03/23 02:44:40;;;;;;;;;19.75;16.75;;;;;10.44;41.84;98655.75;4896909;28;103544;-86
2021/03/23 02:47:07;;;;;;;;;17.75;15.00;;;;;10.45;41.58;98660.94;4889411;28;102161;-85
2021/03/23 02:49:37;;;;;;;;;14.50;12.75;;;;;10.44;41.83;98656.59;4880876;28;102274;-86
2021/03/23 02:52:04;;;;;;;;;17.75;15.50;;;;;10.44;41.78;98662.00;4905166;28;104414;-86
2021/03/23 02:54:31;;;;;;;;;18.75;13.75;;;;;10.42;41.79;98647.84;4892587;28;102096;-86
2021/03/23 02:56:58;;;;;;;;;23.75;18.50;;;;;10.44;41.61;98655.75;4902772;28;102365;-85
2021/03/23 02:59:24;;;;;;;;;17.75;17.00;;;;;10.45;41.82;98654.69;4905988;28;102181;-86
2021/03/23 03:01:51;;;;;;;;;20.00;16.75;;;;;10.43;41.78;98654.91;4904466;28;104094;-85
2021/03/23 03:04:18;;;;;;;;;19.50;16.25;;;;;10.43;41.89;98654.09;4895397;28;102175;-85
2021/03/23 03:06:45;;;;;;;;;19.50;15.75;;;;;10.42;41.70;98663.22;4904530;28;102171;-86
2021/03/23 03:09:12;;;;;;;;;24.25;16.50;;;;;10.42;41.77;98661.34;4898563;28;102069;-86
2021/03/23 03:11:38;;;;;;;;;24.75;19.75;;;;;10.40;41.89;98670.72;4903102;28;104106;-86
2021/03/23 03:14:05;;;;;;;;;20.00;18.00;;;;;10.41;41.89;98672.34;4900378;28;102392;-86
2021/03/23 03:16:32;;;;;;;;;17.25;16.50;;;;;10.39;41.51;98664.47;4902189;28;102371;-86
2021/03/23 03:18:59;;;;;;;;;21.00;18.50;;;;;10.39;42.07;98658.22;4906343;28;102463;-86
2021/03/23 03:21:25;;;;;;;;;21.50;18.75;;;;;10.41;41.96;98667.78;4893926;28;104098;-85
2021/03/23 03:23:53;;;;;;;;;25.00;19.25;;;;;10.40;41.96;98660.69;4907250;28;104968;-86
2021/03/23 03:26:20;;;;;;;;;22.75;17.00;;;;;10.39;41.83;98653.66;4894117;28;102208;-85
2021/03/23 03:28:50;;;;;;;;;20.00;16.75;;;;;10.40;41.59;98660.69;4902633;28;102765;-86
2021/03/23 03:31:21;;;;;;;;;24.00;17.75;;;;;10.40;41.53;98658.00;4897316;28;104075;-86
2021/03/23 03:33:49;;;;;;;;;18.75;17.75;;;;;10.39;41.89;98658.22;4908389;28;102289;-85
2021/03/23 03:36:16;;;;;;;;;20.75;19.25;;;;;10.39;41.38;98650.13;4901189;28;102128;-86
2021/03/23 03:38:46;;;;;;;;;16.75;14.50;;;;;10.42;41.74;98655.94;4905629;28;102454;-86
2021/03/23 03:41:13;;;;;;;;;20.75;15.50;;;;;10.40;41.46;98655.28;4896639;28;104053;-86
2021/03/23 03:43:40;;;;;;;;;16.00;12.00;;;;;10.41;41.91;98656.97;4877141;28;103134;-85
2021/03/23 03:46:10;;;;;;;;;17.75;17.00;;;;;10.41;41.79;98648.03;4897902;28;102156;-86
2021/03/23 03:48:37;;;;;;;;;15.50;11.75;;;;;10.39;41.62;98648.25;4906973;28;102260;-86
2021/03/23 03:51:04;;;;;;;;;18.25;15.75;;;;;10.41;41.79;98653.44;4900039;28;104075;-85
2021/03/23 03:53:31;;;;;;;;;20.25;18.50;;;;;10.39;41.57;98645.53;4908465;28;102208;-86
2021/03/23 03:55:57;;;;;;;;;23.25;16.00;;;;;10.40;41.69;98649.09;4890609;28;102115;-86
2021/03/23 03:58:24;;;;;;;;;26.00;16.75;;;;;10.40;41.90;98649.88;4904505;28;102353;-86
2021/03/23 04:00:51;;;;;;;;;18.00;14.75;;;;;10.39;41.78;98650.94;4902690;28;104278;-86
2021/03/23 04:03:28;;;;;;;;;19.00;15.75;;;;;10.34;41.36;98650.72;4901167;28;102157;-86
2021/03/23 04:05:56;;;;;;;;;17.75;15.00;;;;;10.37;41.26;98649.47;4894088;28;102350;-85
2021/03/23 04:08:25;;;;;;;;;16.25;15.00;;;;;10.37;41.91;98652.16;4903973;28;102057;-85
2021/03/23 04:10:52;;;;;;;;;24.75;18.50;;;;;10.39;41.46;98653.66;4896627;28;104324;-85
2021/03/23 04:13:19;;;;;;;;;22.00;18.75;;;;;10.40;41.74;98655.28;4900642;28;102394;-85
2021/03/23 04:15:47;;;;;;;;;17.50;16.75;;;;;10.43;41.69;98654.09;4897609;28;102685;-85
2021/03/23 04:18:16;;;;;;;;;30.00;18.00;;;;;10.47;41.80;98661.59;4865097;28;102266;-86
2021/03/23 04:20:43;;;;;;;;;19.75;17.00;;;;;10.48;41.48;98652.47;4895560;28;104123;-86
2021/03/23 04:23:22;;;;;;;;;20.25;15.25;;;;;10.53;41.76;98660.81;4905854;28;103802;-86
2021/03/23 04:25:49;;;;;;;;;11.50;10.50;;;;;10.57;41.82;98651.25;4873496;28;102457;-85
2021/03/23 04:28:16;;;;;;;;;23.50;18.75;;;;;10.59;41.54;98657.28;4872906;28;103545;-86
2021/03/23 04:30:43;;;;;;;;;1.50;0.50;;;;;10.62;41.78;98664.19;4885840;28;104586;-86
2021/03/23 04:33:10;;;;;;;;;18.00;16.75;;;;;10.62;41.88;98653.38;4889994;28;102143;-86
2021/03/23 04:35:56;;;;;;;;;24.75;16.50;;;;;10.67;41.75;98657.13;4867617;28;102593;-86
2021/03/23 04:38:25;;;;;;;;;18.00;13.75;;;;;10.68;41.50;98660.66;4899471;28;102032;-86
2021/03/23 04:40:53;;;;;;;;;18.50;17.50;;;;;10.67;41.77;98649.00;4890844;28;104142;-86
2021/03/23 04:43:27;;;;;;;;;18.00;13.50;;;;;10.72;41.32;98657.34;4893900;28;102102;-86
2021/03/23 04:45:54;;;;;;;;;21.50;17.25;;;;;10.73;41.45;98663.59;4882687;28;102680;-85
2021/03/23 04:48:22;;;;;;;;;23.50;18.00;;;;;10.75;41.63;98666.97;4896785;28;102427;-86
2021/03/23 04:50:49;;;;;;;;;20.50;15.75;;;;;10.77;41.40;98674.84;4870186;28;104002;-86
2021/03/23 04:53:19;;;;;;;;;21.00;17.25;;;;;10.76;41.37;98667.78;4889105;28;104275;-86
2021/03/23 04:55:47;;;;;;;;;28.00;19.00;;;;;10.77;41.42;98674.84;4880516;28;103368;-85
2021/03/23 04:58:14;;;;;;;;;18.25;16.00;;;;;10.77;41.21;98672.97;4886177;28;102554;-86
2021/03/23 05:00:42;;;;;;;;;13.75;12.50;;;;;10.79;41.21;98675.50;4882284;28;104398;-86
2021/03/23 05:03:19;;;;;;;;;16.75;12.50;;;;;10.79;41.44;98670.94;4889373;28;102249;-86
2021/03/23 05:05:46;;;;;;;;;22.75;14.25;;;;;10.79;41.18;98672.78;4886446;28;102654;-86
2021/03/23 05:08:13;;;;;;;;;17.75;14.75;;;;;10.80;41.12;98669.06;4896121;28;102980;-86
2021/03/23 05:10:40;;;;;;;;;18.75;16.00;;;;;10.81;41.03;98670.75;4885080;28;104341;-86
2021/03/23 05:13:07;;;;;;;;;17.25;15.25;;;;;10.80;41.36;98677.16;4888550;28;103390;-86
2021/03/23 05:15:33;;;;;;;;;18.50;12.00;;;;;10.80;41.23;98669.06;4880467;28;102680;-86
2021/03/23 05:18:00;;;;;;;;;19.25;17.25;;;;;10.79;41.16;98670.94;4890861;28;102119;-86
2021/03/23 05:20:27;;;;;;;;;23.25;16.75;;;;;10.80;41.43;98677.16;4888491;28;104147;-85
2021/03/23 05:22:53;;;;;;;;;20.25;14.50;;;;;10.80;41.14;98677.16;4886515;28;102210;-85
2021/03/23 05:29:01;;;;;;;;;23.25;16.25;;;;;10.80;41.35;98674.47;4890240;28;102007;-85
2021/03/23 05:31:27;;;;;;;;;20.00;15.75;;;;;10.79;41.34;98668.22;4887849;28;104068;-85
2021/03/23 05:33:55;;;;;;;;;18.00;17.00;;;;;10.75;41.45;98661.53;4871007;28;102226;-85
2021/03/23 05:36:23;;;;;;;;;20.00;15.50;;;;;10.80;41.43;98674.47;4889384;28;102688;-85
2021/03/23 05:38:49;;;;;;;;;17.00;16.25;;;;;10.78;41.41;98669.25;4890789;28;102205;-85
2021/03/23 05:41:26;;;;;;;;;16.50;14.25;;;;;10.79;41.44;98675.50;4883713;28;104575;-85
2021/03/23 05:43:59;;;;;;;;;17.25;14.50;;;;;10.78;41.31;98666.53;4858871;28;102620;-85
2021/03/23 05:46:32;;;;;;;;;15.25;13.25;;;;;10.78;41.32;98663.84;4871148;28;104185;-85
2021/03/23 05:49:13;;;;;;;;;13.00;8.25;;;;;10.78;41.33;98671.13;4889666;28;102215;-85
2021/03/23 05:51:43;;;;;;;;;18.25;15.75;;;;;10.77;41.22;98664.03;4857210;28;104136;-85
2021/03/23 05:54:21;;;;;;;;;16.50;13.00;;;;;10.75;41.30;98669.66;4874446;28;102229;-85
2021/03/23 05:56:53;;;;;;;;;16.50;13.75;;;;;10.76;41.37;98670.50;4873520;28;103127;-85
2021/03/23 05:59:51;;;;;;;;;19.00;13.00;;;;;10.76;41.26;98674.03;4879299;28;103136;-86
2021/03/23 06:02:20;;;;;;;;;19.75;16.75;;;;;10.74;40.97;98666.13;4867246;28;104169;-85
2021/03/23 06:05:11;;;;;;;;;17.25;15.50;;;;;10.76;41.29;98676.75;4849354;28;102692;-85
2021/03/23 06:07:39;;;;;;;;;21.50;16.25;;;;;10.76;41.39;98684.03;4875182;28;102145;-86
2021/03/23 06:10:16;;;;;;;;;16.25;13.25;;;;;10.76;40.99;98681.31;4886361;28;103674;-85
2021/03/23 06:13:03;;;;;;;;;17.50;15.00;;;;;10.74;41.10;98679.63;4860511;28;104070;-86
2021/03/23 06:16:05;;;;;;;;;12.75;12.00;;;;;10.73;41.30;98686.06;4865422;28;104341;-85
2021/03/23 06:18:36;;;;;;;;;16.50;13.75;;;;;10.73;41.45;98694.19;4830850;28;102171;-85
2021/03/23 06:21:10;;;;;;;;;16.50;13.50;;;;;10.73;41.53;98693.34;4880106;28;102238;-85
2021/03/23 06:24:10;;;;;;;;;17.50;14.25;;;;;10.72;41.26;98688.97;4879972;28;104161;-85
2021/03/23 06:26:39;;;;;;;;;19.00;16.25;;;;;10.73;41.05;98691.47;4863658;28;102743;-85
2021/03/23 06:29:21;;;;;;;;;15.75;14.25;;;;;10.72;41.42;98687.09;4886899;28;102281;-85
2021/03/23 06:31:54;;;;;;;;;18.25;14.50;;;;;10.71;41.19;98685.47;4884594;28;102181;-85
2021/03/23 06:34:25;;;;;;;;;16.00;13.00;;;;;10.71;41.28;98690.03;4895827;28;106401;-85
2021/03/23 06:36:51;;;;;;;;;18.50;13.75;;;;;10.70;41.51;98683.78;4860500;28;102692;-85
2021/03/23 06:39:19;;;;;;;;;17.00;14.50;;;;;10.69;41.39;98687.50;4907007;28;103356;-85
2021/03/23 06:42:02;;;;;;;;;18.00;11.50;;;;;10.71;41.27;98698.97;4881630;28;103656;-85
2021/03/23 06:44:40;;;;;;;;;18.50;15.00;;;;;10.69;41.09;98692.09;4883366;28;104082;-85
2021/03/23 06:47:29;;;;;;;;;16.50;13.00;;;;;10.68;41.62;98687.69;4903554;28;102133;-85
2021/03/23 06:49:56;;;;;;;;;17.25;13.50;;;;;10.68;41.40;98691.25;4883706;28;102196;-85
2021/03/23 06:52:24;;;;;;;;;14.50;12.00;;;;;10.69;41.32;98698.34;4859799;28;102322;-85
2021/03/23 06:55:06;;;;;;;;;20.25;15.75;;;;;10.67;41.26;98692.28;4897335;28;104301;-85
2021/03/23 06:57:37;;;;;;;;;16.25;13.00;;;;;10.68;41.46;98691.25;4896351;28;102138;-85
2021/03/23 07:00:21;;;;;;;;;16.25;14.25;;;;;10.69;41.38;98684.81;4899533;28;102060;-85
2021/03/23 07:02:48;;;;;;;;;14.25;12.75;;;;;10.69;41.09;98697.50;4898900;28;102138;-85
2021/03/23 07:05:42;;;;;;;;;17.00;13.00;;;;;10.69;41.13;98692.09;4904963;28;104055;-85
2021/03/23 07:08:09;;;;;;;;;16.00;12.00;;;;;10.69;41.62;98694.78;4897726;28;102255;-85
2021/03/23 07:10:42;;;;;;;;;17.00;12.75;;;;;10.68;41.40;98687.69;4905102;28;104013;-85
2021/03/23 07:13:27;;;;;;;;;13.00;12.00;;;;;10.68;41.45;98699.34;4905429;28;104912;-85
2021/03/23 07:15:59;;;;;;;;;13.75;12.00;;;;;10.69;41.20;98700.19;4891842;28;102885;-85
2021/03/23 07:18:28;;;;;;;;;16.50;12.00;;;;;10.69;41.23;98711.84;4905834;28;102174;-84
2021/03/23 07:21:15;;;;;;;;;17.75;13.50;;;;;10.68;41.13;98699.34;4864995;28;101965;-85
2021/03/23 07:23:43;;;;;;;;;16.25;14.00;;;;;10.68;41.05;98715.59;4880156;28;102075;-84
2021/03/23 07:26:29;;;;;;;;;13.75;12.00;;;;;10.65;41.43;98710.59;4899788;28;104205;-85
2021/03/23 07:29:13;;;;;;;;;15.75;14.75;;;;;10.68;41.37;98717.44;4895405;28;104153;-85
2021/03/23 07:31:47;;;;;;;;;19.25;13.50;;;;;10.68;41.44;98718.28;4896015;28;102205;-85
2021/03/23 07:34:30;;;;;;;;;13.50;12.00;;;;;10.67;41.27;98719.31;4880444;28;102122;-84
2021/03/23 07:37:13;;;;;;;;;14.25;12.75;;;;;10.67;41.47;98721.22;4893861;28;104083;-85
2021/03/23 07:39:41;;;;;;;;;11.50;10.00;;;;;10.68;41.15;98729.09;4874623;28;102116;-85
2021/03/23 07:42:32;;;;;;;;;14.25;13.25;;;;;10.66;41.21;98728.47;4876979;28;102095;-84
2021/03/23 07:45:11;;;;;;;;;13.75;12.75;;;;;10.67;41.04;98719.31;4845734;28;102439;-84
2021/03/23 07:47:59;;;;;;;;;13.50;11.00;;;;;10.65;41.37;98718.69;4862074;28;104357;-85
2021/03/23 07:50:28;;;;;;;;;12.00;11.00;;;;;10.67;41.12;98715.81;4872051;28;102245;-85
2021/03/23 07:53:28;;;;;;;;;15.75;12.25;;;;;10.67;41.15;98715.81;4891437;28;102558;-85
2021/03/23 07:56:01;;;;;;;;;12.50;9.75;;;;;10.66;41.35;98717.66;4905580;28;102683;-84
2021/03/23 07:58:41;;;;;;;;;16.00;13.25;;;;;10.66;40.64;98712.25;4864523;28;104024;-85
2021/03/23 08:01:38;;;;;;;;;13.50;11.25;;;;;10.65;41.55;98718.69;4874276;28;102724;-84
2021/03/23 08:04:11;;;;;;;;;14.00;11.50;;;;;10.65;41.26;98712.44;4908820;28;102343;-85
2021/03/23 08:06:51;;;;;;;;;13.75;11.75;;;;;10.66;41.28;98719.53;4876468;28;102096;-84
2021/03/23 08:09:35;;;;;;;;;13.25;12.00;;;;;10.65;41.18;98712.44;4892902;28;104084;-84
2021/03/23 08:12:31;;;;;;;;;15.25;13.75;;;;;10.65;41.12;98712.44;4899358;28;102591;-84
2021/03/23 08:15:21;;;;;;;;;18.25;12.75;;;;;10.66;41.49;98725.78;4877664;28;102091;-84
2021/03/23 08:17:53;;;;;;;;;15.00;13.00;;;;;10.66;41.32;98717.66;4874223;28;104206;-84
2021/03/23 08:20:38;;;;;;;;;13.00;11.75;;;;;10.66;41.46;98730.34;4905092;28;105892;-84
2021/03/23 08:23:36;;;;;;;;;11.25;11.00;;;;;10.66;41.21;98738.47;4898871;28;102419;-84
2021/03/23 08:26:09;;;;;;;;;14.50;13.00;;;;;10.66;41.37;98735.75;4894689;28;102403;-84
2021/03/23 08:28:49;;;;;;;;;15.25;10.75;;;;;10.65;41.71;98734.91;4891581;28;104078;-84
2021/03/23 08:31:43;;;;;;;;;11.75;9.75;;;;;10.64;41.33;98727.84;4858995;28;104129;-84
2021/03/23 08:34:16;;;;;;;;;11.75;10.25;;;;;10.65;41.26;98729.50;4888647;28;102275;-84
2021/03/23 08:37:12;;;;;;;;;16.00;12.25;;;;;10.62;41.15;98729.09;4904776;28;102233;-84
2021/03/23 08:40:34;;;;;;;;;11.00;9.50;;;;;10.63;41.36;98726.16;4876011;28;102636;-84
2021/03/23 08:43:01;;;;;;;;;15.50;12.75;;;;;10.64;41.23;98721.59;4810810;29;104060;-84
2021/03/23 08:45:30;;;;;;;;;11.75;10.00;;;;;10.63;41.25;98720.75;4804723;29;102208;-85
2021/03/23 08:48:01;;;;;;;;;12.75;10.25;;;;;10.64;41.50;98722.44;4857852;28;102219;-84
2021/03/23 08:50:35;;;;;;;;;9.50;8.00;;;;;10.65;41.15;98726.81;4886057;28;102534;-85
2021/03/23 08:53:05;;;;;;;;;9.00;8.25;;;;;10.65;41.16;98720.56;4887667;28;103849;-85
2021/03/23 08:55:33;;;;;;;;;10.25;9.25;;;;;10.65;41.43;98725.97;4885403;28;101943;-84
2021/03/23 08:58:17;;;;;;;;;11.75;10.50;;;;;10.65;41.27;98726.81;4900588;28;102104;-85
2021/03/23 09:00:59;;;;;;;;;11.75;10.25;;;;;10.66;41.35;98727.66;4909061;28;101968;-84
2021/03/23 09:03:45;;;;;;;;;9.75;9.00;;;;;10.65;41.22;98732.22;4898201;28;104386;-85
2021/03/23 09:06:16;;;;;;;;;11.00;10.00;;;;;10.66;41.23;98730.34;4903491;28;102408;-85
2021/03/23 09:08:47;;;;;;;;;9.00;6.00;;;;;10.63;41.31;98742.38;4859362;28;102706;-84
2021/03/23 09:11:38;;;;;;;;;10.00;10.00;;;;;10.65;40.74;98737.63;4899019;28;102505;-85
2021/03/23 09:14:09;;;;;;;;;10.75;10.00;;;;;10.66;41.25;98746.56;4898843;28;104083;-84
2021/03/23 09:16:49;;;;;;;;;9.25;7.50;;;;;10.65;41.50;98739.50;4879064;28;102154;-85
2021/03/23 09:19:39;;;;;;;;;12.00;10.00;;;;;10.66;41.32;98739.31;4883845;28;102450;-84
2021/03/23 09:22:26;;;;;;;;;9.50;8.25;;;;;10.66;41.48;98736.59;4878396;28;102173;-85
2021/03/23 09:25:24;;;;;;;;;9.00;8.50;;;;;10.66;41.41;98735.75;4871978;28;103915;-84
2021/03/23 09:27:51;;;;;;;;;10.50;9.00;;;;;10.66;41.41;98728.47;4863959;28;103046;-84
2021/03/23 09:30:46;;;;;;;;;11.25;10.00;;;;;10.66;41.37;98733.91;4902003;28;102151;-84
2021/03/23 09:33:22;;;;;;;;;10.00;8.75;;;;;10.66;41.34;98725.78;4889270;28;102860;-84
2021/03/23 09:36:12;;;;;;;;;9.50;9.50;;;;;10.66;41.37;98733.91;4907948;28;104163;-84
2021/03/23 09:38:47;;;;;;;;;12.00;9.00;;;;;10.66;41.25;98728.47;4857188;28;102764;-85
2021/03/23 09:41:22;;;;;;;;;11.25;9.25;;;;;10.67;41.21;98718.50;4865603;28;102301;-84
2021/03/23 09:44:12;;;;;;;;;11.00;10.00;;;;;10.67;41.35;98721.22;4896814;28;102133;-84
2021/03/23 09:46:52;;;;;;;;;11.75;8.50;;;;;10.68;41.44;98726.41;4887121;28;104196;-84
2021/03/23 09:49:34;;;;;;;;;10.00;9.00;;;;;10.68;41.19;98722.84;4904925;28;102182;-85
2021/03/23 09:52:34;;;;;;;;;10.25;9.00;;;;;10.68;41.56;98718.28;4866587;28;102779;-85
2021/03/23 09:55:01;;;;;;;;;10.50;7.50;;;;;10.67;41.79;98715.81;4874524;28;105491;-85
2021/03/23 09:57:30;;;;;;;;;10.00;8.00;;;;;10.70;41.23;98720.81;4908240;28;105279;-85
2021/03/23 10:00:28;;;;;;;;;10.50;8.50;;;;;10.70;41.37;98724.34;4879589;28;102415;-85
2021/03/23 10:02:55;;;;;;;;;10.75;10.25;;;;;10.71;41.23;98722.47;4890042;28;102689;-85
2021/03/23 10:05:25;;;;;;;;;10.25;8.00;;;;;10.72;41.36;98729.53;4909687;28;102135;-85
2021/03/23 10:07:52;;;;;;;;;6.00;6.00;;;;;10.72;40.97;98719.56;4860793;28;104033;-85
2021/03/23 10:10:22;;;;;;;;;8.75;7.75;;;;;10.73;41.00;98718.53;4877105;28;102522;-85
2021/03/23 10:12:49;;;;;;;;;10.25;5.75;;;;;10.76;41.15;98719.19;4902646;28;102220;-85
2021/03/23 10:15:20;;;;;;;;;6.25;5.00;;;;;10.77;41.08;98720.81;4902306;28;102511;-85
2021/03/23 10:17:47;;;;;;;;;9.00;5.00;;;;;10.76;41.12;98721.88;4896920;28;103857;-84
2021/03/23 10:20:19;;;;;;;;;10.00;9.00;;;;;10.78;41.03;98726.03;4907884;28;101951;-85
2021/03/23 10:22:52;;;;;;;;;8.75;6.25;;;;;10.77;41.48;98721.66;4881475;28;102072;-85
2021/03/23 10:25:20;;;;;;;;;8.00;8.00;;;;;10.79;41.05;98726.88;4880002;28;102329;-84
2021/03/23 10:27:47;;;;;;;;;11.00;7.75;;;;;10.77;41.28;98718.13;4863521;28;104437;-85
2021/03/23 10:30:15;;;;;;;;;9.25;6.25;;;;;10.78;41.17;98722.50;4892772;28;102046;-85
2021/03/23 10:32:51;;;;;;;;;9.75;8.00;;;;;10.79;41.07;98724.19;4896137;28;102072;-85
2021/03/23 10:35:30;;;;;;;;;8.75;6.00;;;;;10.80;41.20;98726.69;4883159;28;102208;-84
2021/03/23 10:38:17;;;;;;;;;11.00;9.00;;;;;10.80;41.12;98718.59;4870047;28;104277;-84
2021/03/23 10:41:19;;;;;;;;;8.00;8.00;;;;;10.80;40.92;98710.47;4903133;28;102020;-85
2021/03/23 10:43:47;;;;;;;;;10.00;8.25;;;;;10.80;41.17;98712.34;4897004;28;102184;-85
2021/03/23 10:46:41;;;;;;;;;7.25;6.00;;;;;10.83;41.34;98714.63;4910831;28;102611;-84
2021/03/23 10:49:15;;;;;;;;;10.00;9.00;;;;;10.82;41.10;98708.38;4888021;28;104109;-85
2021/03/23 10:51:44;;;;;;;;;6.00;5.25;;;;;10.84;40.99;98716.31;4896954;28;101972;-85
2021/03/23 10:54:11;;;;;;;;;7.25;5.50;;;;;10.83;41.12;98709.22;4883464;28;102975;-85
2021/03/23 10:56:45;;;;;;;;;8.25;5.50;;;;;10.84;41.23;98713.59;4897486;28;102600;-84
2021/03/23 10:59:19;;;;;;;;;8.75;8.25;;;;;10.84;41.09;98714.44;4872328;28;104304;-85
2021/03/23 11:02:14;;;;;;;;;6.00;6.00;;;;;10.84;40.92;98717.16;4907883;28;102437;-85
2021/03/23 11:05:02;;;;;;;;;7.75;5.75;;;;;10.82;41.07;98718.38;4896063;28;102289;-85
2021/03/23 11:07:32;;;;;;;;;9.00;5.75;;;;;10.84;41.07;98724.41;4892587;28;102395;-84
2021/03/23 11:10:00;;;;;;;;;9.00;7.00;;;;;10.84;41.30;98724.41;4874469;28;104080;-84
2021/03/23 11:12:28;;;;;;;;;9.00;8.00;;;;;10.81;40.99;98727.53;4903767;28;102169;-85
2021/03/23 11:14:55;;;;;;;;;5.00;4.75;;;;;10.82;41.00;98729.19;4882899;28;103541;-85
2021/03/23 11:17:23;;;;;;;;;7.75;6.00;;;;;10.83;41.17;98728.16;4890683;28;102117;-85
2021/03/23 11:19:59;;;;;;;;;6.00;5.25;;;;;10.82;41.21;98735.44;4903564;28;104372;-84
2021/03/23 11:22:29;;;;;;;;;6.25;6.00;;;;;10.82;41.22;98723.78;4862514;28;102139;-84
2021/03/23 11:24:57;;;;;;;;;9.00;6.00;;;;;10.82;41.34;98729.19;4857104;28;102257;-84
2021/03/23 11:27:27;;;;;;;;;2.00;2.00;;;;;10.84;41.12;98721.72;4906839;28;102237;-84
2021/03/23 11:29:57;;;;;;;;;5.75;5.00;;;;;10.82;41.08;98723.78;4869276;28;104079;-84
2021/03/23 11:32:24;;;;;;;;;9.00;6.50;;;;;10.83;41.34;98718.16;4878143;28;102759;-84
2021/03/23 11:34:52;;;;;;;;;8.00;8.00;;;;;10.85;40.88;98720.69;4858186;28;102096;-85
2021/03/23 11:37:19;;;;;;;;;5.00;5.00;;;;;10.86;41.21;98711.50;4905108;28;102285;-84
2021/03/23 11:39:45;;;;;;;;;7.25;5.50;;;;;10.87;41.21;98715.91;4885195;28;104062;-84
2021/03/23 11:42:36;;;;;;;;;4.75;4.75;;;;;10.89;41.01;98703.03;4881398;28;102461;-84